createdAt,value
2018-03-08T00:01:08.642Z,2.53
2018-03-08T00:06:36.798Z,1.73
2018-03-08T00:12:05.720Z,1.37
2018-03-08T00:17:33.867Z,1.77
2018-03-08T00:23:02.012Z,0.97
2018-03-08T00:28:30.179Z,2.60
2018-03-08T00:33:59.161Z,0.93
2018-03-08T00:39:27.312Z,1.50
2018-03-08T00:44:55.489Z,1.27
2018-03-08T00:50:23.652Z,1.60
2018-03-08T00:55:51.827Z,1.40
2018-03-08T01:01:19.972Z,2.20
2018-03-08T01:06:48.154Z,2.27
2018-03-08T01:12:17.047Z,1.77
2018-03-08T01:17:45.189Z,1.53
2018-03-08T01:23:13.347Z,1.10
2018-03-08T01:28:41.467Z,1.30
2018-03-08T01:34:09.598Z,1.30
2018-03-08T01:39:37.752Z,2.80
2018-03-08T01:45:06.117Z,1.10
2018-03-08T01:50:35.019Z,0.90
2018-03-08T01:56:03.181Z,1.20
2018-03-08T02:01:31.324Z,1.23
2018-03-08T02:06:59.469Z,1.07
2018-03-08T02:12:27.614Z,2.20
2018-03-08T02:17:56.511Z,1.33
2018-03-08T02:23:24.734Z,0.80
2018-03-08T02:28:53.119Z,1.97
2018-03-08T02:34:21.283Z,1.33
2018-03-08T02:39:49.411Z,0.93
2018-03-08T02:45:17.579Z,2.37
2018-03-08T02:50:46.495Z,1.30
2018-03-08T02:56:15.403Z,1.20
2018-03-08T03:01:43.553Z,1.10
2018-03-08T03:07:12.467Z,2.57
2018-03-08T03:12:40.623Z,0.87
2018-03-08T03:18:08.776Z,1.67
2018-03-08T03:23:36.915Z,1.43
2018-03-08T03:29:05.062Z,0.90
2018-03-08T03:34:33.226Z,1.87
2018-03-08T03:40:02.322Z,1.17
2018-03-08T03:45:31.054Z,1.50
2018-03-08T03:50:59.206Z,1.37
2018-03-08T03:56:27.421Z,3.20
2018-03-08T04:01:55.604Z,1.00
2018-03-08T04:07:23.772Z,1.87
2018-03-08T04:12:52.096Z,1.70
2018-03-08T04:18:20.291Z,4.23
2018-03-08T04:23:49.234Z,3.23
2018-03-08T04:29:18.140Z,1.00
2018-03-08T04:34:46.278Z,1.13
2018-03-08T04:40:15.190Z,1.20
2018-03-08T04:45:43.351Z,1.93
2018-03-08T04:51:12.303Z,1.67
2018-03-08T04:56:40.431Z,1.60
2018-03-08T05:02:08.597Z,1.40
2018-03-08T05:07:36.764Z,2.90
2018-03-08T05:13:04.917Z,1.50
2018-03-08T05:18:33.084Z,4.00
2018-03-08T05:24:01.250Z,1.30
2018-03-08T05:29:30.213Z,1.33
2018-03-08T05:34:58.612Z,1.53
2018-03-08T05:40:26.788Z,2.40
2018-03-08T05:45:55.760Z,1.70
2018-03-08T05:51:23.924Z,1.77
2018-03-08T05:56:52.069Z,1.23
2018-03-08T06:02:21.037Z,1.77
2018-03-08T06:07:49.171Z,2.20
2018-03-08T06:13:18.073Z,2.60
2018-03-08T06:18:46.206Z,2.13
2018-03-08T06:24:14.479Z,1.67
2018-03-08T06:29:42.629Z,1.83
2018-03-08T06:35:10.771Z,1.40
2018-03-08T06:40:38.916Z,1.60
2018-03-08T06:46:07.833Z,1.40
2018-03-08T06:51:36.058Z,1.53
2018-03-08T06:57:04.284Z,1.43
2018-03-08T07:02:33.187Z,1.53
2018-03-08T07:08:01.340Z,2.67
2018-03-08T07:13:29.492Z,1.57
2018-03-08T07:18:57.640Z,2.03
2018-03-08T07:24:25.865Z,1.23
2018-03-08T07:29:54.037Z,1.30
2018-03-08T07:35:23.485Z,2.03
2018-03-08T07:40:51.697Z,1.10
2018-03-08T07:46:20.615Z,1.50
2018-03-08T07:51:48.759Z,1.57
2018-03-08T07:57:17.694Z,1.60
2018-03-08T08:02:46.600Z,2.23
2018-03-08T08:08:32.682Z,1.53
2018-03-08T08:14:01.611Z,1.77
2018-03-08T08:19:30.518Z,1.43
2018-03-08T08:24:58.663Z,1.53
2018-03-08T08:30:27.603Z,2.30
2018-03-08T08:35:56.637Z,2.13
2018-03-08T08:41:24.810Z,1.10
2018-03-08T08:46:52.964Z,2.17
2018-03-08T08:52:21.125Z,1.00
2018-03-08T08:57:49.264Z,2.17
2018-03-08T09:03:17.408Z,2.33
2018-03-08T09:08:45.558Z,2.60
2018-03-08T09:14:14.469Z,1.67
2018-03-08T09:19:42.624Z,2.73
2018-03-08T09:25:11.538Z,3.90
2018-03-08T09:30:39.683Z,3.80
2018-03-08T09:36:08.592Z,2.40
2018-03-08T09:41:36.732Z,1.80
2018-03-08T09:47:05.684Z,1.67
2018-03-08T09:52:34.570Z,1.47
2018-03-08T09:58:02.719Z,1.20
2018-03-08T10:03:31.643Z,1.00
2018-03-08T10:08:59.785Z,1.03
2018-03-08T10:14:28.711Z,1.67
2018-03-08T10:19:56.957Z,2.07
2018-03-08T10:25:25.121Z,1.70
2018-03-08T10:30:53.286Z,1.00
2018-03-08T10:36:22.246Z,1.40
2018-03-08T10:41:50.447Z,1.10
2018-03-08T10:47:18.599Z,1.10
2018-03-08T10:52:46.735Z,2.13
2018-03-08T10:58:14.913Z,3.70
2018-03-08T11:03:48.717Z,1.10
2018-03-08T11:09:17.628Z,1.40
2018-03-08T11:14:45.846Z,1.97
2018-03-08T11:20:13.990Z,1.87
2018-03-08T11:25:42.143Z,2.80
2018-03-08T11:31:10.289Z,1.00
2018-03-08T11:36:38.442Z,1.30
2018-03-08T11:42:06.604Z,2.73
2018-03-08T11:47:34.738Z,2.37
2018-03-08T11:53:02.893Z,4.63
2018-03-08T11:58:31.036Z,1.50
2018-03-08T12:03:59.211Z,3.53
2018-03-08T12:09:27.371Z,2.73
2018-03-08T12:14:55.548Z,5.80
2018-03-08T12:20:23.736Z,1.63
2018-03-08T12:25:52.015Z,1.87
2018-03-08T12:31:20.300Z,4.50
2018-03-08T12:36:48.459Z,3.33
2018-03-08T12:42:16.622Z,1.00
2018-03-08T12:47:44.786Z,2.40
2018-03-08T12:53:12.999Z,1.90
2018-03-08T12:58:41.139Z,1.70
2018-03-08T13:04:09.347Z,2.93
2018-03-08T13:09:37.505Z,2.17
2018-03-08T13:15:05.666Z,5.93
2018-03-08T13:20:33.843Z,2.63
2018-03-08T13:26:02.009Z,4.97
2018-03-08T13:31:30.158Z,3.37
2018-03-08T13:36:58.335Z,1.87
2018-03-08T13:42:27.276Z,2.80
2018-03-08T13:47:56.587Z,2.33
2018-03-08T13:53:24.854Z,2.93
2018-03-08T13:58:53.164Z,2.67
2018-03-08T14:04:22.190Z,1.00
2018-03-08T14:09:50.429Z,1.53
2018-03-08T14:15:18.695Z,4.97
2018-03-08T14:20:47.629Z,1.00
2018-03-08T14:26:15.795Z,2.83
2018-03-08T14:31:44.424Z,1.57
2018-03-08T14:37:13.363Z,1.10
2018-03-08T14:42:41.561Z,1.10
2018-03-08T14:48:09.754Z,2.03
2018-03-08T14:53:54.368Z,3.47
2018-03-08T14:59:29.854Z,1.73
2018-03-08T15:04:58.157Z,3.23
2018-03-08T15:10:26.395Z,2.50
2018-03-08T15:15:54.649Z,1.17
2018-03-08T15:21:22.862Z,1.93
2018-03-08T15:26:51.859Z,1.80
2018-03-08T15:32:20.021Z,1.10
2018-03-08T15:37:48.192Z,2.70
2018-03-08T15:43:17.111Z,1.70
2018-03-08T15:48:46.084Z,2.43
2018-03-08T15:54:14.314Z,1.30
2018-03-08T15:59:42.486Z,7.67
2018-03-08T16:05:10.635Z,2.17
2018-03-08T16:10:38.995Z,1.77
2018-03-08T16:16:07.207Z,1.10
2018-03-08T16:21:40.074Z,1.60
2018-03-08T16:27:08.325Z,1.40
2018-03-08T16:32:37.235Z,1.50
2018-03-08T16:38:05.451Z,2.50
2018-03-08T16:43:33.749Z,4.97
2018-03-08T16:49:01.932Z,2.73
2018-03-08T16:54:30.972Z,3.13
2018-03-08T17:00:00.850Z,5.07
2018-03-08T17:05:29.168Z,2.83
2018-03-08T17:10:57.389Z,5.70
2018-03-08T17:16:25.534Z,9.23
2018-03-08T17:21:53.856Z,9.13
2018-03-08T17:27:22.242Z,8.23
2018-03-08T17:32:50.399Z,13.03
2018-03-08T17:38:18.690Z,7.30
2018-03-08T17:43:48.981Z,7.97
2018-03-08T17:49:31.140Z,4.83
2018-03-08T17:54:59.635Z,12.17
2018-03-08T18:00:28.710Z,9.57
2018-03-08T18:05:56.900Z,8.87
2018-03-08T18:11:26.010Z,10.00
2018-03-08T18:16:54.189Z,9.00
2018-03-08T18:22:22.635Z,19.30
2018-03-08T18:27:50.966Z,14.57
2018-03-08T18:33:19.237Z,12.17
2018-03-08T18:38:47.451Z,12.07
2018-03-08T18:44:16.226Z,12.00
2018-03-08T18:49:44.422Z,7.57
2018-03-08T18:55:12.675Z,9.40
2018-03-08T19:00:40.888Z,6.93
2018-03-08T19:06:09.170Z,7.73
2018-03-08T19:11:38.607Z,4.40
2018-03-08T19:17:06.933Z,9.20
2018-03-08T19:22:38.248Z,12.77
2018-03-08T19:28:07.181Z,7.50
2018-03-08T19:33:36.205Z,9.67
2018-03-08T19:39:04.414Z,8.97
2018-03-08T19:44:32.611Z,9.23
2018-03-08T19:50:00.811Z,8.27
2018-03-08T19:55:29.008Z,10.57
2018-03-08T20:00:58.493Z,8.80
2018-03-08T20:06:26.775Z,9.40
2018-03-08T20:11:55.877Z,10.60
2018-03-08T20:17:24.135Z,8.63
2018-03-08T20:22:52.376Z,7.37
2018-03-08T20:28:20.688Z,9.50
2018-03-08T20:33:49.702Z,8.07
2018-03-08T20:39:17.922Z,11.83
2018-03-08T20:44:46.332Z,5.50
2018-03-08T20:50:14.694Z,7.03
2018-03-08T20:55:42.914Z,4.07
2018-03-08T21:01:11.869Z,4.20
2018-03-08T21:06:40.037Z,4.00
2018-03-08T21:12:08.181Z,4.93
2018-03-08T21:17:36.324Z,7.50
2018-03-08T21:23:04.468Z,6.30
2018-03-08T21:28:32.709Z,6.80
2018-03-08T21:34:01.071Z,5.47
2018-03-08T21:39:29.250Z,6.70
2018-03-08T21:44:57.692Z,12.97
2018-03-08T21:50:25.945Z,5.60
2018-03-08T21:55:54.871Z,3.00
2018-03-08T22:01:23.023Z,7.40
2018-03-08T22:06:51.191Z,2.30
2018-03-08T22:12:19.328Z,4.07
2018-03-08T22:17:48.236Z,4.30
2018-03-08T22:23:16.379Z,4.33
2018-03-08T22:28:44.507Z,4.00
2018-03-08T22:34:13.424Z,2.83
2018-03-08T22:39:41.559Z,2.60
2018-03-08T22:45:09.691Z,4.50
2018-03-08T22:50:38.594Z,3.33
2018-03-08T22:56:08.685Z,4.50
2018-03-08T23:02:07.423Z,2.53
2018-03-08T23:07:36.334Z,3.80
2018-03-08T23:13:04.464Z,3.33
2018-03-08T23:18:32.609Z,2.57
2018-03-08T23:24:01.513Z,4.00
2018-03-08T23:29:29.774Z,2.40
2018-03-08T23:34:58.685Z,2.43
2018-03-08T23:40:26.839Z,2.90
2018-03-08T23:45:54.980Z,1.77
2018-03-08T23:51:23.247Z,1.93
2018-03-08T23:56:51.429Z,2.50
